createdAt,value
2018-05-25T00:02:22.024Z,99213.72
2018-05-25T00:04:55.676Z,99218.17
2018-05-25T00:07:29.252Z,99214.30
2018-05-25T00:10:02.792Z,99217.60
2018-05-25T00:12:36.485Z,99218.74
2018-05-25T00:15:09.992Z,99217.45
2018-05-25T00:17:43.748Z,99220.42
2018-05-25T00:20:17.543Z,99212.62
2018-05-25T00:22:51.152Z,99212.12
2018-05-25T00:25:24.837Z,99214.75
2018-05-25T00:27:58.580Z,99214.33
2018-05-25T00:30:32.155Z,99219.71
2018-05-25T00:33:05.741Z,99216.64
2018-05-25T00:35:39.569Z,99214.23
2018-05-25T00:38:13.352Z,99217.27
2018-05-25T00:40:46.894Z,99217.84
2018-05-25T00:43:20.660Z,99216.30
2018-05-25T00:45:54.274Z,99218.94
2018-05-25T00:48:27.915Z,99225.27
2018-05-25T00:51:01.560Z,99224.69
2018-05-25T00:53:35.229Z,99222.45
2018-05-25T00:56:08.800Z,99223.88
2018-05-25T00:58:42.533Z,99218.83
2018-05-25T01:01:16.392Z,99221.84
2018-05-25T01:03:50.181Z,99219.62
2018-05-25T01:06:24.031Z,99220.70
2018-05-25T01:08:57.641Z,99218.36
2018-05-25T01:11:31.404Z,99224.45
2018-05-25T01:14:05.005Z,99221.14
2018-05-25T01:16:38.731Z,99226.27
2018-05-25T01:19:12.272Z,99225.07
2018-05-25T01:21:45.872Z,99226.84
2018-05-25T01:24:19.432Z,99217.84
2018-05-25T01:26:52.950Z,99221.45
2018-05-25T01:29:26.684Z,99216.53
2018-05-25T01:32:00.265Z,99212.93
2018-05-25T01:34:33.982Z,99206.30
2018-05-25T01:37:07.610Z,99208.93
2018-05-25T01:39:41.263Z,99203.78
2018-05-25T01:42:14.796Z,99208.93
2018-05-25T01:44:48.535Z,99212.76
2018-05-25T01:47:22.183Z,99206.02
2018-05-25T01:49:55.868Z,99206.36
2018-05-25T01:52:29.611Z,99202.30
2018-05-25T01:55:03.280Z,99200.24
2018-05-25T01:57:38.108Z,99196.08
2018-05-25T02:00:11.836Z,99196.70
2018-05-25T02:02:45.364Z,99193.59
2018-05-25T02:05:18.934Z,99194.96
2018-05-25T02:07:52.712Z,99194.62
2018-05-25T02:10:26.401Z,99196.36
2018-05-25T02:13:00.066Z,99189.33
2018-05-25T02:15:33.588Z,99189.13
2018-05-25T02:18:07.289Z,99191.48
2018-05-25T02:20:40.991Z,99189.11
2018-05-25T02:23:14.631Z,99191.27
2018-05-25T02:25:48.376Z,99192.07
2018-05-25T02:28:22.052Z,99190.92
2018-05-25T02:30:55.583Z,99186.50
2018-05-25T02:33:29.140Z,99186.16
2018-05-25T02:36:02.797Z,99184.61
2018-05-25T02:38:36.389Z,99184.64
2018-05-25T02:41:09.875Z,99180.15
2018-05-25T02:43:43.421Z,99172.88
2018-05-25T02:46:17.168Z,99176.27
2018-05-25T02:48:50.890Z,99182.73
2018-05-25T02:51:24.564Z,99185.30
2018-05-25T02:53:58.283Z,99183.07
2018-05-25T02:56:32.068Z,99183.41
2018-05-25T02:59:05.758Z,99183.10
2018-05-25T03:01:39.474Z,99183.01
2018-05-25T03:04:13.168Z,99187.52
2018-05-25T03:06:46.892Z,99193.67
2018-05-25T03:09:20.400Z,99190.25
2018-05-25T03:11:54.121Z,99185.50
2018-05-25T03:14:27.691Z,99188.92
2018-05-25T03:17:01.552Z,99189.31
2018-05-25T03:19:35.108Z,99192.64
2018-05-25T03:22:08.768Z,99193.89
2018-05-25T03:24:42.447Z,99194.40
2018-05-25T03:27:15.988Z,99197.32
2018-05-25T03:29:49.724Z,99197.14
2018-05-25T03:32:23.312Z,99198.52
2018-05-25T03:34:57.007Z,99199.77
2018-05-25T03:37:30.536Z,99198.52
2018-05-25T03:40:04.178Z,99204.11
2018-05-25T03:42:37.932Z,99200.11
2018-05-25T03:45:11.732Z,99204.58
2018-05-25T03:47:45.361Z,99199.51
2018-05-25T03:50:18.855Z,99198.66
2018-05-25T03:52:52.512Z,99202.71
2018-05-25T03:55:26.272Z,99208.42
2018-05-25T03:58:00.005Z,99208.87
2018-05-25T04:00:45.404Z,99209.05
2018-05-25T04:03:19.180Z,99211.33
2018-05-25T04:05:52.736Z,99216.75
2018-05-25T04:08:26.416Z,99217.33
2018-05-25T04:10:59.912Z,99217.16
2018-05-25T04:13:33.700Z,99206.94
2018-05-25T04:16:07.325Z,99212.02
2018-05-25T04:18:40.874Z,99209.51
2018-05-25T04:21:14.519Z,99216.02
2018-05-25T04:23:48.284Z,99218.97
2018-05-25T04:26:21.930Z,99219.38
2018-05-25T04:28:55.594Z,99219.03
2018-05-25T04:31:29.298Z,99219.95
2018-05-25T04:34:02.874Z,99220.42
2018-05-25T04:36:36.619Z,99224.52
2018-05-25T04:39:10.396Z,99227.20
2018-05-25T04:41:44.052Z,99225.09
2018-05-25T04:44:17.634Z,99226.50
2018-05-25T04:46:51.402Z,99229.06
2018-05-25T04:49:24.981Z,99229.70
2018-05-25T04:51:58.628Z,99233.84
2018-05-25T04:54:32.330Z,99233.10
2018-05-25T04:57:05.897Z,99234.64
2018-05-25T04:59:39.671Z,99239.79
2018-05-25T05:02:13.245Z,99238.23
2018-05-25T05:04:46.967Z,99242.72
2018-05-25T05:07:20.652Z,99241.56
2018-05-25T05:09:54.268Z,99238.13
2018-05-25T05:12:27.914Z,99248.25
2018-05-25T05:15:01.728Z,99242.63
2018-05-25T05:17:35.228Z,99239.66
2018-05-25T05:20:08.974Z,99238.05
2018-05-25T05:22:42.604Z,99240.92
2018-05-25T05:25:16.241Z,99239.44
2018-05-25T05:27:49.744Z,99237.53
2018-05-25T05:30:23.404Z,99243.06
2018-05-25T05:32:56.973Z,99242.33
2018-05-25T05:35:30.685Z,99239.94
2018-05-25T05:38:04.298Z,99234.89
2018-05-25T05:40:38.155Z,99235.95
2018-05-25T05:43:12.007Z,99234.19
2018-05-25T05:45:45.644Z,99237.86
2018-05-25T05:48:19.388Z,99228.59
2018-05-25T05:50:53.064Z,99239.46
2018-05-25T05:53:26.666Z,99237.80
2018-05-25T05:56:00.506Z,99238.36
2018-05-25T05:58:34.172Z,99237.05
2018-05-25T06:01:07.744Z,99237.35
2018-05-25T06:03:41.243Z,99239.57
2018-05-25T06:06:14.908Z,99239.44
2018-05-25T06:08:49.021Z,99245.46
2018-05-25T06:11:22.919Z,99242.14
2018-05-25T06:13:56.469Z,99251.37
2018-05-25T06:16:30.151Z,99249.89
2018-05-25T06:19:03.936Z,99250.29
2018-05-25T06:21:37.580Z,99252.07
2018-05-25T06:24:11.512Z,99255.15
2018-05-25T06:26:45.203Z,99255.33
2018-05-25T06:29:18.914Z,99265.20
2018-05-25T06:31:52.420Z,99272.27
2018-05-25T06:34:25.972Z,99279.48
2018-05-25T06:36:59.515Z,99285.08
2018-05-25T06:39:33.079Z,99282.30
2018-05-25T06:42:06.868Z,99285.50
2018-05-25T06:44:40.624Z,99282.16
2018-05-25T06:47:14.196Z,99280.28
2018-05-25T06:49:47.714Z,99285.23
2018-05-25T06:52:21.453Z,99284.97
2018-05-25T06:54:55.265Z,99283.34
2018-05-25T06:57:28.985Z,99296.62
2018-05-25T07:00:02.653Z,99293.47
2018-05-25T07:02:36.312Z,99294.57
2018-05-25T07:05:10.087Z,99287.23
2018-05-25T07:07:43.859Z,99285.53
2018-05-25T07:10:17.565Z,99282.63
2018-05-25T07:12:51.205Z,99287.27
2018-05-25T07:15:24.748Z,99287.52
2018-05-25T07:18:04.285Z,99287.75
2018-05-25T07:20:38.030Z,99282.27
2018-05-25T07:23:11.703Z,99287.23
2018-05-25T07:25:45.393Z,99290.22
2018-05-25T07:28:19.276Z,99296.83
2018-05-25T07:30:53.030Z,99299.64
2018-05-25T07:33:26.855Z,99300.53
2018-05-25T07:36:00.497Z,99303.16
2018-05-25T07:38:34.122Z,99301.78
2018-05-25T07:41:07.753Z,99303.52
2018-05-25T07:43:41.325Z,99305.59
2018-05-25T07:46:14.955Z,99303.38
2018-05-25T07:48:48.672Z,99304.90
2018-05-25T07:51:22.596Z,99306.34
2018-05-25T07:53:56.293Z,99307.23
2018-05-25T07:56:29.993Z,99309.28
2018-05-25T07:59:03.624Z,99314.92
2018-05-25T08:01:37.493Z,99313.52
2018-05-25T08:04:11.105Z,99313.52
2018-05-25T08:06:44.905Z,99314.52
2018-05-25T08:09:18.666Z,99319.23
2018-05-25T08:11:52.284Z,99314.77
2018-05-25T08:14:25.900Z,99312.98
2018-05-25T08:17:00.329Z,99318.62
2018-05-25T08:19:34.157Z,99315.71
2018-05-25T08:22:07.836Z,99311.70
2018-05-25T08:24:41.511Z,99312.69
2018-05-25T08:27:15.259Z,99319.81
2018-05-25T08:29:49.052Z,99321.88
2018-05-25T08:32:22.681Z,99320.56
2018-05-25T08:34:56.296Z,99324.95
2018-05-25T08:37:29.969Z,99325.84
2018-05-25T08:40:03.802Z,99323.95
2018-05-25T08:42:37.624Z,99324.98
2018-05-25T08:45:11.460Z,99322.06
2018-05-25T08:47:45.175Z,99320.92
2018-05-25T08:50:18.908Z,99324.02
2018-05-25T08:52:52.527Z,99326.91
2018-05-25T08:55:26.243Z,99329.44
2018-05-25T08:57:59.869Z,99328.58
2018-05-25T09:00:33.521Z,99334.16
2018-05-25T09:03:07.227Z,99330.57
2018-05-25T09:05:41.017Z,99327.27
2018-05-25T09:08:14.745Z,99324.23
2018-05-25T09:10:48.360Z,99328.46
2018-05-25T09:13:22.137Z,99329.66
2018-05-25T09:15:55.905Z,99318.48
2018-05-25T09:18:29.473Z,99327.47
2018-05-25T09:21:03.177Z,99317.20
2018-05-25T09:23:36.761Z,99313.39
2018-05-25T09:26:10.493Z,99310.86
2018-05-25T09:28:44.239Z,99318.59
2018-05-25T09:31:18.209Z,99316.71
2018-05-25T09:33:51.896Z,99318.19
2018-05-25T09:36:25.701Z,99324.45
2018-05-25T09:38:59.433Z,99327.85
2018-05-25T09:41:33.070Z,99324.23
2018-05-25T09:44:06.766Z,99324.55
2018-05-25T09:46:40.397Z,99324.16
2018-05-25T09:49:14.105Z,99323.44
2018-05-25T09:51:47.883Z,99319.62
2018-05-25T09:54:21.508Z,99318.33
2018-05-25T09:57:01.216Z,99312.40
2018-05-25T09:59:35.034Z,99312.25
2018-05-25T10:02:09.060Z,99319.78
2018-05-25T10:04:42.886Z,99318.52
2018-05-25T10:07:16.611Z,99327.12
2018-05-25T10:09:50.343Z,99316.06
2018-05-25T10:12:23.973Z,99319.59
2018-05-25T10:14:57.761Z,99318.95
2018-05-25T10:17:31.497Z,99326.22
2018-05-25T10:20:05.172Z,99320.62
2018-05-25T10:22:38.932Z,99316.06
2018-05-25T10:25:12.665Z,99315.81
2018-05-25T10:27:46.341Z,99315.51
2018-05-25T10:30:20.059Z,99315.47
2018-05-25T10:32:53.693Z,99321.11
2018-05-25T10:35:27.241Z,99321.58
2018-05-25T10:38:01.041Z,99316.87
2018-05-25T10:40:34.770Z,99307.87
2018-05-25T10:43:08.328Z,99312.25
2018-05-25T10:45:42.121Z,99302.97
2018-05-25T10:48:15.834Z,99302.80
2018-05-25T10:50:49.437Z,99307.54
2018-05-25T10:53:23.043Z,99303.91
2018-05-25T10:55:56.732Z,99304.25
2018-05-25T10:58:30.480Z,99300.31
2018-05-25T11:01:04.137Z,99290.86
2018-05-25T11:03:37.938Z,99290.17
2018-05-25T11:06:11.483Z,99291.53
2018-05-25T11:08:45.194Z,99290.92
2018-05-25T11:11:18.997Z,99286.53
2018-05-25T11:13:53.042Z,99277.55
2018-05-25T11:19:26.045Z,99277.06
2018-05-25T11:21:59.797Z,99278.54
2018-05-25T11:24:33.436Z,99278.54
2018-05-25T11:27:27.834Z,99273.50
2018-05-25T11:30:01.498Z,99274.94
2018-05-25T11:32:35.135Z,99272.70
2018-05-25T11:35:08.839Z,99277.44
2018-05-25T11:37:42.516Z,99272.64
2018-05-25T11:40:16.284Z,99274.16
2018-05-25T11:42:50.000Z,99269.83
2018-05-25T11:45:23.554Z,99275.73
2018-05-25T11:47:57.317Z,99271.80
2018-05-25T11:50:31.047Z,99273.36
2018-05-25T11:53:04.698Z,99262.71
2018-05-25T11:55:39.599Z,99263.80
2018-05-25T11:58:13.308Z,99251.04
2018-05-25T12:00:47.020Z,99260.03
2018-05-25T12:03:20.764Z,99252.39
2018-05-25T12:05:54.493Z,99253.19
2018-05-25T12:08:28.241Z,99253.33
2018-05-25T12:11:01.897Z,99259.73
2018-05-25T12:13:35.603Z,99256.95
2018-05-25T12:16:09.442Z,99251.52
2018-05-25T12:18:43.144Z,99256.53
2018-05-25T12:21:16.717Z,99254.30
2018-05-25T12:23:50.430Z,99254.24
2018-05-25T12:26:24.135Z,99263.66
2018-05-25T12:28:57.853Z,99267.23
2018-05-25T12:31:31.403Z,99265.45
2018-05-25T12:34:05.088Z,99260.66
2018-05-25T12:36:38.776Z,99271.34
2018-05-25T12:39:12.544Z,99274.45
2018-05-25T12:41:46.151Z,99269.03
2018-05-25T12:44:19.709Z,99261.14
2018-05-25T12:46:53.460Z,99256.53
2018-05-25T12:49:26.968Z,99266.72
2018-05-25T12:52:00.535Z,99272.11
2018-05-25T12:54:34.151Z,99273.67
2018-05-25T12:57:07.847Z,99275.27
2018-05-25T12:59:41.360Z,99281.31
2018-05-25T13:02:14.950Z,99273.39
2018-05-25T13:04:48.664Z,99284.02
2018-05-25T13:07:22.456Z,99279.34
2018-05-25T13:09:55.956Z,99276.27
2018-05-25T13:12:29.573Z,99285.13
2018-05-25T13:15:03.108Z,99290.35
2018-05-25T13:17:36.908Z,99288.28
2018-05-25T13:20:10.552Z,99280.75
2018-05-25T13:22:44.107Z,99278.53
2018-05-25T13:25:17.876Z,99282.42
2018-05-25T13:27:51.455Z,99283.30
2018-05-25T13:30:25.132Z,99279.53
2018-05-25T13:32:58.612Z,99292.30
2018-05-25T13:35:32.189Z,99291.23
2018-05-25T13:38:05.763Z,99295.45
2018-05-25T13:40:39.491Z,99284.08
2018-05-25T13:43:13.203Z,99295.30
2018-05-25T13:45:46.732Z,99289.02
2018-05-25T13:48:20.564Z,99295.94
2018-05-25T13:50:54.063Z,99287.28
2018-05-25T13:53:27.676Z,99281.35
2018-05-25T13:56:01.295Z,99281.95
2018-05-25T13:58:35.043Z,99285.37
2018-05-25T14:01:08.569Z,99276.09
2018-05-25T14:03:42.151Z,99273.39
2018-05-25T14:06:15.823Z,99273.58
2018-05-25T14:08:49.419Z,99282.60
2018-05-25T14:11:23.093Z,99277.56
2018-05-25T14:13:56.611Z,99282.17
2018-05-25T14:16:30.496Z,99276.23
2018-05-25T14:19:04.170Z,99277.81
2018-05-25T14:21:37.700Z,99274.04
2018-05-25T14:24:11.272Z,99265.57
2018-05-25T14:26:45.141Z,99271.36
2018-05-25T14:29:18.684Z,99269.27
2018-05-25T14:31:52.392Z,99268.39
2018-05-25T14:34:26.196Z,99269.97
2018-05-25T14:36:59.677Z,99268.38
2018-05-25T14:39:33.429Z,99263.48
2018-05-25T14:42:07.108Z,99274.66
2018-05-25T14:44:40.888Z,99271.45
2018-05-25T14:47:14.407Z,99277.59
2018-05-25T14:49:48.091Z,99276.39
2018-05-25T14:52:21.684Z,99285.97
2018-05-25T14:54:55.495Z,99276.99
2018-05-25T14:57:29.245Z,99272.98
2018-05-25T15:00:02.853Z,99268.23
2018-05-25T15:02:36.388Z,99266.83
2018-05-25T15:05:10.029Z,99268.59
2018-05-25T15:07:43.584Z,99268.72
2018-05-25T15:10:17.224Z,99259.13
2018-05-25T15:12:50.998Z,99260.55
2018-05-25T15:15:24.582Z,99262.67
2018-05-25T15:17:58.218Z,99264.24
2018-05-25T15:20:31.870Z,99259.77
2018-05-25T15:23:05.435Z,99258.31
2018-05-25T15:25:39.133Z,99257.25
2018-05-25T15:28:12.875Z,99260.76
2018-05-25T15:30:46.482Z,99256.70
2018-05-25T15:33:20.037Z,99253.25
2018-05-25T15:35:53.859Z,99248.47
2018-05-25T15:38:27.492Z,99244.28
2018-05-25T15:41:01.292Z,99245.98
2018-05-25T15:43:34.825Z,99239.73
2018-05-25T15:46:08.628Z,99237.98
2018-05-25T15:48:43.018Z,99238.02
2018-05-25T15:51:16.591Z,99233.97
2018-05-25T15:53:50.335Z,99231.25
2018-05-25T15:56:23.937Z,99228.05
2018-05-25T15:58:57.564Z,99225.27
2018-05-25T16:01:31.090Z,99228.02
2018-05-25T16:04:04.796Z,99226.02
2018-05-25T16:06:38.392Z,99229.66
2018-05-25T16:09:12.046Z,99230.27
2018-05-25T16:11:45.589Z,99224.92
2018-05-25T16:14:19.379Z,99222.87
2018-05-25T16:16:52.906Z,99224.48
2018-05-25T16:19:26.504Z,99213.19
2018-05-25T16:22:00.032Z,99217.61
2018-05-25T16:24:33.764Z,99215.99
2018-05-25T16:27:07.317Z,99214.02
2018-05-25T16:29:41.015Z,99215.06
2018-05-25T16:32:14.553Z,99212.26
2018-05-25T16:34:48.217Z,99208.67
2018-05-25T16:37:21.820Z,99214.65
2018-05-25T16:39:55.427Z,99209.06
2018-05-25T16:42:29.044Z,99204.34
2018-05-25T16:45:02.712Z,99206.94
2018-05-25T16:47:36.342Z,99205.51
2018-05-25T16:50:09.987Z,99207.67
2018-05-25T16:52:43.612Z,99207.48
2018-05-25T16:55:17.241Z,99211.05
2018-05-25T16:57:50.886Z,99208.87
2018-05-25T17:00:24.445Z,99213.03
2018-05-25T17:02:57.956Z,99208.03
2018-05-25T17:05:31.830Z,99213.22
2018-05-25T17:08:05.612Z,99205.88
2018-05-25T17:10:39.164Z,99201.48
2018-05-25T17:13:12.836Z,99206.09
2018-05-25T17:15:46.475Z,99206.48
2018-05-25T17:18:19.980Z,99213.63
2018-05-25T17:20:53.736Z,99208.47
2018-05-25T17:23:27.236Z,99204.66
2018-05-25T17:26:01.062Z,99204.30
2018-05-25T17:28:34.771Z,99206.64
2018-05-25T17:31:08.536Z,99212.78
2018-05-25T17:33:42.378Z,99209.59
2018-05-25T17:36:16.195Z,99209.91
2018-05-25T17:38:49.872Z,99216.28
2018-05-25T17:41:23.448Z,99221.94
2018-05-25T17:43:57.007Z,99213.22
2018-05-25T17:46:30.600Z,99218.74
2018-05-25T17:49:04.288Z,99226.41
2018-05-25T17:51:38.036Z,99230.95
2018-05-25T17:54:11.573Z,99223.36
2018-05-25T17:56:45.139Z,99221.63
2018-05-25T17:59:18.924Z,99227.52
2018-05-25T18:01:52.429Z,99227.95
2018-05-25T18:04:26.050Z,99235.42
2018-05-25T18:06:59.716Z,99229.52
2018-05-25T18:09:33.223Z,99238.78
2018-05-25T18:12:07.016Z,99242.50
2018-05-25T18:14:40.757Z,99251.10
2018-05-25T18:17:14.534Z,99251.52
2018-05-25T18:19:48.187Z,99247.91
2018-05-25T18:22:21.792Z,99255.39
2018-05-25T18:24:55.500Z,99256.02
2018-05-25T18:27:29.224Z,99247.33
2018-05-25T18:30:02.759Z,99255.61
2018-05-25T18:32:36.568Z,99246.70
2018-05-25T18:35:10.283Z,99259.63
2018-05-25T18:37:43.864Z,99254.72
2018-05-25T18:40:17.503Z,99255.28
2018-05-25T18:42:51.062Z,99255.97
2018-05-25T18:45:24.991Z,99251.01
2018-05-25T18:47:58.689Z,99252.21
2018-05-25T18:50:32.311Z,99259.36
2018-05-25T18:53:05.878Z,99259.11
2018-05-25T18:55:39.528Z,99263.75
2018-05-25T18:58:13.160Z,99263.66
2018-05-25T19:00:46.803Z,99266.27
2018-05-25T19:03:20.488Z,99269.78
2018-05-25T19:05:54.197Z,99269.85
2018-05-25T19:08:27.806Z,99271.75
2018-05-25T19:11:01.613Z,99274.12
2018-05-25T19:13:35.229Z,99274.75
2018-05-25T19:16:09.048Z,99273.67
2018-05-25T19:18:42.630Z,99278.09
2018-05-25T19:21:16.181Z,99281.60
2018-05-25T19:23:49.817Z,99278.16
2018-05-25T19:26:23.393Z,99286.88
2018-05-25T19:28:57.176Z,99290.04
2018-05-25T19:31:30.869Z,99285.00
2018-05-25T19:34:04.431Z,99291.91
2018-05-25T19:36:38.056Z,99286.09
2018-05-25T19:39:11.592Z,99297.28
2018-05-25T19:41:45.240Z,99294.02
2018-05-25T19:44:19.038Z,99294.89
2018-05-25T19:46:52.668Z,99293.22
2018-05-25T19:49:26.494Z,99301.73
2018-05-25T19:52:00.027Z,99304.62
2018-05-25T19:54:33.683Z,99303.44
2018-05-25T19:57:07.435Z,99314.54
2018-05-25T19:59:41.152Z,99315.37
2018-05-25T20:02:15.049Z,99311.75
2018-05-25T20:04:48.512Z,99314.88
2018-05-25T20:07:22.079Z,99319.59
2018-05-25T20:09:56.379Z,99322.51
2018-05-25T20:12:29.939Z,99320.67
2018-05-25T20:15:03.759Z,99328.08
2018-05-25T20:17:37.439Z,99324.50
2018-05-25T20:20:11.173Z,99322.07
2018-05-25T20:22:44.720Z,99321.81
2018-05-25T20:25:18.515Z,99321.13
2018-05-25T20:27:52.235Z,99312.17
2018-05-25T20:30:25.739Z,99320.95
2018-05-25T20:32:59.299Z,99315.45
2018-05-25T20:35:33.083Z,99317.53
2018-05-25T20:38:06.740Z,99311.05
2018-05-25T20:40:40.391Z,99311.72
2018-05-25T20:43:14.200Z,99308.78
2018-05-25T20:45:47.704Z,99305.92
2018-05-25T20:48:21.280Z,99303.84
2018-05-25T20:50:54.808Z,99306.80
2018-05-25T20:53:28.412Z,99312.66
2018-05-25T20:56:02.100Z,99307.55
2018-05-25T20:58:35.891Z,99311.50
2018-05-25T21:01:09.735Z,99311.34
2018-05-25T21:03:43.268Z,99309.23
2018-05-25T21:06:17.348Z,99308.95
2018-05-25T21:08:51.006Z,99313.35
2018-05-25T21:11:24.852Z,99317.31
2018-05-25T21:13:58.460Z,99313.33
2018-05-25T21:16:32.939Z,99316.89
2018-05-25T21:19:06.719Z,99315.22
2018-05-25T21:21:40.516Z,99321.24
2018-05-25T21:24:14.314Z,99320.12
2018-05-25T21:26:47.776Z,99315.39
2018-05-25T21:29:21.507Z,99322.50
2018-05-25T21:31:55.055Z,99322.54
2018-05-25T21:34:28.824Z,99325.19
2018-05-25T21:37:03.176Z,99326.06
2018-05-25T21:39:36.861Z,99323.02
2018-05-25T21:42:10.481Z,99325.88
2018-05-25T21:44:44.084Z,99326.38
2018-05-25T21:47:17.655Z,99326.55
2018-05-25T21:49:51.272Z,99326.05
2018-05-25T21:52:24.992Z,99327.45
2018-05-25T21:54:58.603Z,99330.48
2018-05-25T21:57:32.227Z,99336.89
2018-05-25T22:00:05.785Z,99333.44
2018-05-25T22:02:39.452Z,99338.59
2018-05-25T22:05:13.272Z,99339.77
2018-05-25T22:07:46.892Z,99340.62
2018-05-25T22:10:20.560Z,99340.51
2018-05-25T22:12:54.064Z,99340.69
2018-05-25T22:15:27.725Z,99344.42
2018-05-25T22:18:01.307Z,99345.46
2018-05-25T22:20:34.872Z,99342.84
2018-05-25T22:23:08.624Z,99347.75
2018-05-25T22:25:42.367Z,99349.66
2018-05-25T22:28:15.922Z,99348.00
2018-05-25T22:30:49.697Z,99353.08
2018-05-25T22:33:23.453Z,99351.12
2018-05-25T22:35:57.063Z,99350.58
2018-05-25T22:38:30.597Z,99352.94
2018-05-25T22:41:04.264Z,99355.08
2018-05-25T22:43:49.759Z,99357.66
2018-05-25T22:46:35.376Z,99363.33
2018-05-25T22:49:21.001Z,99360.93
2018-05-25T22:52:06.608Z,99364.17
2018-05-25T22:54:41.952Z,99363.20
2018-05-25T22:57:15.657Z,99366.94
2018-05-25T22:59:49.296Z,99364.42
2018-05-25T23:02:22.789Z,99363.76
2018-05-25T23:04:56.580Z,99367.09
2018-05-25T23:07:30.317Z,99373.03
2018-05-25T23:10:04.029Z,99370.98
2018-05-25T23:12:37.565Z,99366.16
2018-05-25T23:15:11.176Z,99366.33
2018-05-25T23:17:44.917Z,99370.38
2018-05-25T23:20:18.482Z,99377.47
2018-05-25T23:22:52.028Z,99373.97
2018-05-25T23:25:25.877Z,99374.59
2018-05-25T23:27:59.408Z,99366.78
2018-05-25T23:30:33.188Z,99363.41
2018-05-25T23:33:06.727Z,99367.48
2018-05-25T23:35:40.407Z,99362.11
2018-05-25T23:38:14.143Z,99362.55
2018-05-25T23:40:47.801Z,99361.94
2018-05-25T23:43:21.419Z,99365.93
2018-05-25T23:45:54.974Z,99359.36
2018-05-25T23:48:28.734Z,99360.16
2018-05-25T23:51:02.493Z,99355.51
2018-05-25T23:53:36.017Z,99359.36
2018-05-25T23:56:09.544Z,99354.66
2018-05-25T23:58:43.233Z,99358.20
